Time;durP1;ratioP1;P1;durP2;ratioP2;P2;SDS_P1;SDS_P2;PMS_P1;PMS_P2;Temp;Humidity;BMP_temperature;BMP_pressure;BME280_temperature;BME280_humidity;BME280_pressure;Samples;Min_cycle;Max_cycle;Signal;HPM_P1;HPM_P2
2023/09/30 00:01:43;;;;;;;1622.65;999.90;;;11.60;99.90;;;;;;4875033;29;20489;-86
2023/09/30 00:04:09;;;;;;;1624.90;999.90;;;11.60;99.90;;;;;;4888828;29;20420;-86
2023/09/30 00:06:35;;;;;;;1628.90;999.90;;;11.60;99.90;;;;;;4877281;29;20049;-86
2023/09/30 00:09:02;;;;;;;1409.65;999.90;;;11.70;99.90;;;;;;4875908;29;20044;-87
2023/09/30 00:11:27;;;;;;;1441.25;999.90;;;11.70;99.90;;;;;;4876411;29;20095;-86
2023/09/30 00:13:53;;;;;;;1453.93;999.90;;;11.70;99.90;;;;;;4874981;29;20084;-87
2023/09/30 00:16:19;;;;;;;1607.40;999.90;;;11.80;99.90;;;;;;4891343;29;20111;-86
2023/09/30 00:18:44;;;;;;;1443.47;999.47;;;11.80;99.90;;;;;;4875618;29;20111;-87
2023/09/30 00:21:11;;;;;;;1531.32;999.90;;;11.90;99.90;;;;;;4875509;29;20613;-87
2023/09/30 00:23:37;;;;;;;1564.95;999.90;;;11.90;99.90;;;;;;4876249;29;20401;-86
2023/09/30 00:26:03;;;;;;;1677.45;999.90;;;11.90;99.90;;;;;;4891934;29;20159;-86
2023/09/30 00:28:29;;;;;;;1671.28;999.90;;;11.90;99.90;;;;;;4887745;29;20061;-86
2023/09/30 00:30:55;;;;;;;1555.45;999.90;;;11.80;99.90;;;;;;4884193;29;20045;-86
2023/09/30 00:33:21;;;;;;;1526.35;999.90;;;11.80;99.90;;;;;;4876650;29;20527;-86
2023/09/30 00:35:46;;;;;;;1425.90;999.90;;;11.90;99.90;;;;;;4875608;29;20490;-86
2023/09/30 00:38:12;;;;;;;1479.45;999.90;;;11.90;99.90;;;;;;4892223;29;20040;-86
2023/09/30 00:40:38;;;;;;;1400.57;999.90;;;11.90;99.90;;;;;;4873247;29;20165;-86
2023/09/30 00:43:03;;;;;;;1401.18;999.90;;;11.90;99.90;;;;;;4874916;29;20041;-86
2023/09/30 00:45:30;;;;;;;1434.95;999.90;;;11.90;99.90;;;;;;4875977;29;20051;-86
2023/09/30 00:47:56;;;;;;;1418.90;999.25;;;11.90;99.90;;;;;;4875378;29;20056;-86
2023/09/30 00:50:22;;;;;;;1441.43;999.90;;;11.90;99.90;;;;;;4876331;29;20115;-86
2023/09/30 00:52:49;;;;;;;1619.32;999.90;;;11.90;99.90;;;;;;4875660;29;20070;-86
2023/09/30 00:55:16;;;;;;;1459.55;999.90;;;11.90;99.90;;;;;;4875918;29;20051;-86
2023/09/30 00:57:43;;;;;;;1715.75;999.90;;;11.90;99.90;;;;;;4875568;29;20400;-86
2023/09/30 01:00:25;;;;;;;1742.07;999.90;;;11.80;99.90;;;;;;4891038;29;20079;-86
2023/09/30 01:02:54;;;;;;;1639.60;999.90;;;11.80;99.90;;;;;;4891024;29;20067;-85
2023/09/30 01:05:31;;;;;;;1763.60;999.90;;;11.70;99.90;;;;;;4890728;29;20053;-85
2023/09/30 01:07:57;;;;;;;1596.63;999.90;;;11.60;99.90;;;;;;4891342;29;20127;-85
2023/09/30 01:10:27;;;;;;;1645.90;999.90;;;11.50;99.90;;;;;;4875385;29;20501;-86
2023/09/30 01:13:01;;;;;;;1755.30;999.90;;;11.50;99.90;;;;;;4876113;29;20410;-86
2023/09/30 01:15:36;;;;;;;1589.80;999.90;;;11.50;99.90;;;;;;4890901;29;20044;-87
2023/09/30 01:18:03;;;;;;;1800.38;999.90;;;11.40;99.90;;;;;;4875956;29;20505;-87
2023/09/30 01:20:31;;;;;;;1760.15;999.90;;;11.40;99.90;;;;;;4891691;29;20556;-86
2023/09/30 01:23:01;;;;;;;1800.25;999.90;;;11.40;99.90;;;;;;4876166;29;20048;-86
2023/09/30 01:25:38;;;;;;;1648.10;999.90;;;11.30;99.90;;;;;;4891847;29;20465;-86
2023/09/30 01:28:08;;;;;;;1577.70;999.90;;;11.40;99.90;;;;;;4891624;29;20071;-87
2023/09/30 01:30:33;;;;;;;1276.85;982.13;;;11.40;99.90;;;;;;4893069;29;20048;-87
2023/09/30 01:33:00;;;;;;;1438.18;999.90;;;11.50;99.90;;;;;;4908669;29;20048;-86
2023/09/30 01:35:25;;;;;;;1245.00;969.88;;;11.50;99.90;;;;;;4894465;29;20044;-86
2023/09/30 01:37:54;;;;;;;1290.05;988.72;;;11.50;99.90;;;;;;4893741;29;20049;-87
2023/09/30 01:40:19;;;;;;;1329.80;998.58;;;11.60;99.90;;;;;;4878823;29;20049;-85
2023/09/30 01:42:45;;;;;;;1542.38;999.90;;;11.70;99.90;;;;;;4878412;29;20048;-86
2023/09/30 01:45:11;;;;;;;1283.78;980.30;;;11.70;99.90;;;;;;4878398;29;20127;-86
2023/09/30 01:47:36;;;;;;;1272.88;986.63;;;11.80;99.90;;;;;;4877705;29;20080;-86
2023/09/30 01:50:02;;;;;;;1394.38;999.90;;;11.80;99.90;;;;;;4893597;29;20116;-87
2023/09/30 01:52:28;;;;;;;1390.55;999.90;;;11.90;99.90;;;;;;4877955;29;20481;-86
2023/09/30 01:54:54;;;;;;;1353.78;999.90;;;11.90;99.90;;;;;;4877983;29;20091;-86
2023/09/30 01:57:22;;;;;;;1384.35;999.90;;;11.90;99.90;;;;;;4893407;29;20071;-86
2023/09/30 01:59:51;;;;;;;1369.13;999.90;;;11.90;99.90;;;;;;4892511;29;20545;-86
2023/09/30 02:02:17;;;;;;;1415.15;999.90;;;11.90;99.90;;;;;;4878109;29;20493;-86
2023/09/30 02:04:43;;;;;;;1245.15;976.08;;;11.80;99.90;;;;;;4893639;29;20055;-85
2023/09/30 02:07:09;;;;;;;1419.93;999.90;;;11.80;99.90;;;;;;4877495;29;20489;-86
2023/09/30 02:09:39;;;;;;;1376.88;999.58;;;11.80;99.90;;;;;;4878133;29;20144;-86
2023/09/30 02:12:04;;;;;;;1292.05;988.25;;;11.80;99.90;;;;;;4878256;29;20524;-86
2023/09/30 02:14:38;;;;;;;1283.75;992.75;;;11.80;99.90;;;;;;4877345;29;20107;-85
2023/09/30 02:17:09;;;;;;;1412.28;999.90;;;11.90;99.90;;;;;;4877882;29;20056;-86
2023/09/30 02:19:44;;;;;;;1290.57;980.85;;;11.70;99.90;;;;;;4878268;29;20044;-86
2023/09/30 02:22:18;;;;;;;1243.00;967.97;;;11.70;99.90;;;;;;4878314;29;20437;-86
2023/09/30 02:24:59;;;;;;;1243.22;976.83;;;11.70;99.90;;;;;;4890812;29;20044;-85
2023/09/30 02:27:24;;;;;;;1455.10;999.90;;;11.60;99.90;;;;;;4852394;29;1233392;-86
2023/09/30 02:29:50;;;;;;;1415.25;999.17;;;11.60;99.90;;;;;;4877415;29;20485;-86
2023/09/30 02:32:17;;;;;;;1430.63;999.90;;;11.60;99.90;;;;;;4894994;29;20052;-86
2023/09/30 02:34:44;;;;;;;1273.57;975.60;;;11.60;99.90;;;;;;4877964;29;20481;-86
2023/09/30 02:37:10;;;;;;;1313.03;990.35;;;11.70;99.90;;;;;;4878796;29;20131;-86
2023/09/30 02:39:37;;;;;;;1454.30;999.90;;;11.70;99.90;;;;;;4892058;29;20523;-86
2023/09/30 02:42:08;;;;;;;1267.65;984.05;;;11.80;99.90;;;;;;4893636;29;20082;-86
2023/09/30 02:44:34;;;;;;;1360.63;999.10;;;11.70;99.90;;;;;;4893416;29;20763;-85
2023/09/30 02:47:00;;;;;;;1392.57;996.83;;;11.70;99.90;;;;;;4877921;29;20500;-86
2023/09/30 02:49:26;;;;;;;1375.78;998.97;;;11.80;99.90;;;;;;4892311;29;20061;-86
2023/09/30 02:51:57;;;;;;;1258.45;977.35;;;11.80;99.90;;;;;;4878268;29;20516;-87
2023/09/30 02:54:26;;;;;;;1319.40;983.50;;;11.80;99.90;;;;;;4893768;29;20140;-86
2023/09/30 02:57:00;;;;;;;1408.78;999.90;;;11.80;99.90;;;;;;4893518;29;20430;-86
2023/09/30 02:59:38;;;;;;;1289.70;978.85;;;11.60;99.90;;;;;;4891829;29;20041;-86
2023/09/30 03:02:13;;;;;;;1397.72;999.88;;;11.80;99.90;;;;;;4889836;29;20060;-86
2023/09/30 03:04:50;;;;;;;1282.47;979.40;;;11.90;99.90;;;;;;4877888;29;20055;-87
2023/09/30 03:07:22;;;;;;;1250.32;970.40;;;11.90;99.90;;;;;;4878856;29;20036;-86
2023/09/30 03:09:58;;;;;;;1311.75;995.35;;;11.90;99.90;;;;;;4877563;29;20048;-86
2023/09/30 03:12:31;;;;;;;1382.53;998.60;;;11.90;99.90;;;;;;4875136;29;20052;-87
2023/09/30 03:14:57;;;;;;;1226.35;967.28;;;11.90;99.90;;;;;;4871035;29;20496;-87
2023/09/30 03:17:25;;;;;;;1243.35;963.70;;;11.90;99.90;;;;;;4877515;29;20047;-86
2023/09/30 03:19:57;;;;;;;1213.18;955.50;;;11.90;99.90;;;;;;4877871;29;20393;-86
2023/09/30 03:22:34;;;;;;;1209.80;958.25;;;11.90;99.90;;;;;;4878289;29;20082;-86
2023/09/30 03:25:07;;;;;;;1325.80;989.78;;;11.90;99.90;;;;;;4877138;29;20051;-87
2023/09/30 03:27:36;;;;;;;;;;;12.00;99.90;;;;;;4878314;29;20053;-86
2023/09/30 03:30:05;;;;;;;1127.68;928.35;;;11.90;99.90;;;;;;4893225;29;19923;-86
2023/09/30 03:32:33;;;;;;;1303.03;987.63;;;11.90;99.90;;;;;;4877789;29;20048;-86
2023/09/30 03:35:00;;;;;;;1164.60;946.60;;;11.90;99.90;;;;;;4877055;29;20049;-87
2023/09/30 03:37:27;;;;;;;1311.28;988.47;;;11.90;99.90;;;;;;4893838;29;20068;-86
2023/09/30 03:39:56;;;;;;;1300.43;986.47;;;11.90;99.90;;;;;;4891979;29;20055;-85
2023/09/30 03:42:24;;;;;;;1254.28;977.55;;;11.90;99.90;;;;;;4877616;29;20044;-85
2023/09/30 03:44:51;;;;;;;1175.18;952.63;;;11.80;99.90;;;;;;4876843;29;20059;-85
2023/09/30 03:47:17;;;;;;;1320.78;991.92;;;11.80;99.90;;;;;;4876298;29;20060;-86
2023/09/30 03:49:43;;;;;;;1178.43;954.05;;;11.80;99.90;;;;;;4893278;29;20044;-86
2023/09/30 03:52:10;;;;;;;1143.88;946.30;;;11.90;99.90;;;;;;4892124;29;20105;-86
2023/09/30 03:54:37;;;;;;;1189.47;952.33;;;11.90;99.90;;;;;;4877549;29;20070;-86
2023/09/30 03:57:03;;;;;;;1188.45;950.00;;;11.80;99.90;;;;;;4877111;29;20052;-87
2023/09/30 03:59:30;;;;;;;1157.82;943.33;;;11.90;99.90;;;;;;4892150;29;20092;-86
2023/09/30 04:01:58;;;;;;;1267.30;972.20;;;11.90;99.90;;;;;;4876268;29;20056;-86
2023/09/30 04:04:34;;;;;;;1250.22;971.35;;;11.80;99.90;;;;;;4877605;29;20044;-85
2023/09/30 04:07:15;;;;;;;1238.22;971.13;;;11.80;99.90;;;;;;4891709;29;20402;-87
2023/09/30 04:09:46;;;;;;;1129.35;939.75;;;11.80;99.90;;;;;;4876254;29;20516;-87
2023/09/30 04:12:12;;;;;;;1326.75;987.28;;;11.80;99.90;;;;;;4891779;29;20068;-85
2023/09/30 04:14:37;;;;;;;1397.95;999.90;;;11.80;99.90;;;;;;4875173;29;20131;-87
2023/09/30 04:17:06;;;;;;;1202.47;957.60;;;11.80;99.90;;;;;;4877190;29;20052;-86
2023/09/30 04:19:34;;;;;;;1299.45;989.20;;;11.80;99.90;;;;;;4876862;29;20060;-86
2023/09/30 04:22:06;;;;;;;1315.18;990.50;;;11.80;99.90;;;;;;4876197;29;20036;-86
2023/09/30 04:24:32;;;;;;;1295.85;985.10;;;11.70;99.90;;;;;;4876473;29;20063;-86
2023/09/30 04:27:02;;;;;;;1252.63;979.08;;;11.70;99.90;;;;;;4876820;29;20052;-86
2023/09/30 04:29:29;;;;;;;1317.93;996.58;;;11.80;99.90;;;;;;4876454;29;20063;-86
2023/09/30 04:31:56;;;;;;;1330.03;996.08;;;11.80;99.90;;;;;;4877022;29;20056;-86
2023/09/30 04:34:22;;;;;;;1276.35;975.13;;;11.80;99.90;;;;;;4876227;29;20093;-86
2023/09/30 04:36:48;;;;;;;1223.35;973.92;;;11.80;99.90;;;;;;4876491;29;20052;-85
2023/09/30 04:39:35;;;;;;;1237.30;980.08;;;11.80;99.90;;;;;;4877711;29;20485;-84
2023/09/30 04:42:01;;;;;;;1198.55;954.05;;;11.80;99.90;;;;;;4876200;29;20373;-86
2023/09/30 04:44:30;;;;;;;1359.82;998.15;;;11.80;99.90;;;;;;4874901;29;20055;-85
2023/09/30 04:47:00;;;;;;;1200.00;963.08;;;11.80;99.90;;;;;;4864267;29;20511;-86
2023/09/30 04:49:26;;;;;;;1161.15;962.03;;;11.80;99.90;;;;;;4881168;29;20056;-86
2023/09/30 04:51:51;;;;;;;1309.32;991.83;;;11.80;99.90;;;;;;4880221;29;20128;-86
2023/09/30 04:54:17;;;;;;;1138.95;948.90;;;11.80;99.90;;;;;;4868856;29;20072;-86
2023/09/30 04:56:47;;;;;;;1279.22;995.42;;;11.80;99.90;;;;;;4871826;29;20437;-86
2023/09/30 04:59:12;;;;;;;1151.07;950.78;;;11.80;99.90;;;;;;4884315;29;20052;-85
2023/09/30 05:01:41;;;;;;;1308.50;997.83;;;11.70;99.90;;;;;;4885129;29;20056;-85
2023/09/30 05:04:07;;;;;;;1275.50;988.28;;;11.80;99.90;;;;;;4867744;29;20136;-86
2023/09/30 05:06:33;;;;;;;1160.72;961.55;;;11.80;99.90;;;;;;4884247;29;20060;-86
2023/09/30 05:08:59;;;;;;;1150.13;945.40;;;11.70;99.90;;;;;;4884174;29;20489;-86
2023/09/30 05:11:25;;;;;;;1326.55;994.60;;;11.80;99.90;;;;;;4861891;29;20131;-85
2023/09/30 05:13:51;;;;;;;1163.70;958.03;;;11.80;99.90;;;;;;4864993;29;20781;-85
2023/09/30 05:16:21;;;;;;;1117.15;949.65;;;11.70;99.90;;;;;;4860470;29;20049;-84
2023/09/30 05:18:50;;;;;;;1092.90;934.33;;;11.70;99.90;;;;;;4873606;29;20056;-85
2023/09/30 05:21:26;;;;;;;1245.25;984.17;;;11.70;99.90;;;;;;4860784;29;20044;-85
2023/09/30 05:23:52;;;;;;;1238.72;986.42;;;11.70;99.90;;;;;;4869123;29;20056;-85
2023/09/30 05:26:24;;;;;;;1218.90;977.80;;;11.70;99.90;;;;;;4886845;29;20108;-86
2023/09/30 05:28:50;;;;;;;1246.15;981.80;;;11.60;99.90;;;;;;4868730;29;20045;-86
2023/09/30 05:31:16;;;;;;;1119.30;950.05;;;11.60;99.90;;;;;;4890044;29;20059;-84
2023/09/30 05:33:43;;;;;;;1156.70;955.90;;;11.60;99.90;;;;;;4890998;29;20104;-85
2023/09/30 05:36:13;;;;;;;1223.30;974.63;;;11.60;99.90;;;;;;4868163;29;20055;-85
2023/09/30 05:38:42;;;;;;;1130.97;952.75;;;11.50;99.90;;;;;;4875518;29;20088;-86
2023/09/30 05:41:16;;;;;;;1130.95;946.42;;;11.50;99.90;;;;;;4874101;29;20108;-85
2023/09/30 05:43:48;;;;;;;1121.75;941.03;;;11.50;99.90;;;;;;4874401;29;20550;-85
2023/09/30 05:46:15;;;;;;;1154.60;962.55;;;11.60;99.90;;;;;;4868234;29;20040;-86
2023/09/30 05:48:41;;;;;;;1146.25;942.58;;;11.50;99.90;;;;;;4870721;29;20512;-86
2023/09/30 05:51:18;;;;;;;1198.32;972.47;;;11.50;99.90;;;;;;4886714;29;20504;-86
2023/09/30 05:53:54;;;;;;;1292.07;995.55;;;11.50;99.90;;;;;;4890519;29;20068;-86
2023/09/30 05:56:20;;;;;;;1220.95;976.03;;;11.50;99.90;;;;;;4867822;29;20236;-86
2023/09/30 05:58:47;;;;;;;1148.50;950.13;;;11.50;99.90;;;;;;4873991;29;20128;-85
2023/09/30 06:01:18;;;;;;;1256.10;989.75;;;11.50;99.90;;;;;;4889182;29;20411;-86
2023/09/30 06:03:46;;;;;;;1287.68;993.75;;;11.50;99.90;;;;;;4874362;29;20489;-86
2023/09/30 06:06:16;;;;;;;1272.10;996.20;;;11.40;99.90;;;;;;4874516;29;20397;-85
2023/09/30 06:08:47;;;;;;;1265.88;990.00;;;11.50;99.90;;;;;;4874706;29;20131;-86
2023/09/30 06:11:24;;;;;;;1223.22;989.63;;;11.50;99.90;;;;;;4890807;29;20843;-86
2023/09/30 06:13:59;;;;;;;1113.28;945.47;;;11.50;99.90;;;;;;4874974;29;20068;-85
2023/09/30 06:16:26;;;;;;;1255.88;983.67;;;11.50;99.90;;;;;;4878608;29;20179;-88
2023/09/30 06:18:53;;;;;;;1071.15;937.65;;;11.60;99.90;;;;;;4882080;29;20053;-86
2023/09/30 06:21:24;;;;;;;1214.45;987.75;;;11.60;99.90;;;;;;4866327;29;20095;-87
2023/09/30 06:23:51;;;;;;;1197.55;970.90;;;11.60;99.90;;;;;;4878839;29;20056;-86
2023/09/30 06:26:18;;;;;;;1201.95;971.10;;;11.60;99.90;;;;;;4878950;29;20112;-86
2023/09/30 06:29:11;;;;;;;1210.40;976.03;;;11.70;99.90;;;;;;4878174;29;20157;-86
2023/09/30 06:31:39;;;;;;;;;;;11.70;99.90;;;;;;4892415;29;20100;-88
2023/09/30 06:34:06;;;;;;;1205.78;969.30;;;11.70;99.90;;;;;;4879718;29;20379;-87
2023/09/30 06:36:35;;;;;;;1237.35;985.78;;;11.70;99.90;;;;;;4876356;29;20458;-87
2023/09/30 06:39:02;;;;;;;1175.05;957.90;;;11.80;99.90;;;;;;4875903;29;20049;-87
2023/09/30 06:41:28;;;;;;;1173.28;963.13;;;11.80;99.90;;;;;;4877963;29;20039;-87
2023/09/30 06:43:54;;;;;;;1191.85;966.13;;;11.80;99.90;;;;;;4873731;29;20367;-87
2023/09/30 06:46:19;;;;;;;1072.80;932.88;;;11.90;99.90;;;;;;4871983;29;20112;-87
2023/09/30 06:48:45;;;;;;;1055.25;932.80;;;11.90;99.90;;;;;;4871972;29;20445;-86
2023/09/30 06:51:17;;;;;;;1053.10;920.92;;;12.00;99.90;;;;;;4877451;29;20091;-86
2023/09/30 06:53:43;;;;;;;1108.63;942.17;;;12.00;99.90;;;;;;4865723;29;20081;-87
2023/09/30 06:56:09;;;;;;;1117.80;955.85;;;12.10;99.90;;;;;;4876696;29;20384;-87
2023/09/30 06:58:45;;;;;;;1036.20;903.58;;;12.10;99.90;;;;;;4877973;29;20080;-87
2023/09/30 07:01:17;;;;;;;1026.18;914.40;;;12.20;99.90;;;;;;4892431;29;20483;-88
2023/09/30 07:03:46;;;;;;;1234.63;972.90;;;12.30;99.90;;;;;;4869640;29;20297;-86
2023/09/30 07:06:25;;;;;;;1099.30;942.45;;;12.30;99.90;;;;;;4874555;29;20048;-86
2023/09/30 07:08:51;;;;;;;1019.08;907.42;;;12.40;99.90;;;;;;4898087;29;20044;-86
2023/09/30 07:11:17;;;;;;;1090.05;924.72;;;12.40;99.90;;;;;;4877855;29;20556;-88
2023/09/30 07:13:42;;;;;;;988.67;882.45;;;12.50;99.90;;;;;;4878168;29;20052;-87
2023/09/30 07:23:54;;;;;;;968.03;863.90;;;12.80;99.90;;;;;;4878274;29;20060;-88
2023/09/30 07:27:08;;;;;;;1004.83;895.28;;;12.90;99.90;;;;;;4872241;29;20626;-87
2023/09/30 07:30:02;;;;;;;;;;;;;;;;;;;;;
2023/09/30 07:32:29;;;;;;;992.58;883.45;;;13.10;99.90;;;;;;4853905;29;20048;-87
2023/09/30 07:35:11;;;;;;;1001.40;892.20;;;13.20;99.90;;;;;;4876357;29;20568;-87
2023/09/30 07:37:58;;;;;;;937.90;840.65;;;13.20;99.90;;;;;;4874845;29;20476;-85
2023/09/30 07:40:44;;;;;;;955.08;855.25;;;13.30;99.90;;;;;;4864096;29;20061;-87
2023/09/30 07:43:12;;;;;;;998.00;888.45;;;13.40;99.90;;;;;;4847639;29;20140;-88
2023/09/30 07:45:39;;;;;;;942.75;846.53;;;13.40;99.90;;;;;;4851339;29;20060;-88
2023/09/30 07:48:06;;;;;;;955.17;855.35;;;13.70;99.90;;;;;;4864591;29;20049;-87
2023/09/30 07:50:33;;;;;;;951.75;855.40;;;13.50;99.90;;;;;;4852998;29;20517;-87
2023/09/30 07:53:00;;;;;;;940.45;845.10;;;13.60;99.90;;;;;;4843379;29;20268;-87
2023/09/30 07:55:46;;;;;;;908.90;818.47;;;13.60;99.90;;;;;;4874740;29;20056;-87
2023/09/30 07:58:28;;;;;;;;;;;;;;;;;;;;;
2023/09/30 08:08:41;;;;;;;982.05;874.92;;;13.90;99.90;;;;;;4872768;29;20045;-88
2023/09/30 08:11:58;;;;;;;946.15;848.42;;;14.10;99.90;;;;;;4859854;29;20139;-88
2023/09/30 08:15:07;;;;;;;908.03;815.13;;;14.20;99.90;;;;;;4857339;29;20107;-89
2023/09/30 08:18:13;;;;;;;963.83;859.88;;;14.30;99.90;;;;;;4836520;29;20500;-88
2023/09/30 08:28:38;;;;;;;951.47;848.15;;;14.70;99.90;;;;;;4882826;29;20057;-88
2023/09/30 08:31:18;;;;;;;1017.92;881.50;;;14.80;99.90;;;;;;4877408;29;20139;-88
2023/09/30 08:34:08;;;;;;;1052.10;894.47;;;14.90;99.90;;;;;;4867540;29;20136;-88
2023/09/30 08:37:15;;;;;;;1072.28;900.17;;;15.00;99.90;;;;;;4875959;29;20469;-88
2023/09/30 08:39:51;;;;;;;1054.88;900.17;;;15.10;99.90;;;;;;4869251;29;20144;-88
2023/09/30 08:42:21;;;;;;;937.85;837.53;;;15.30;99.90;;;;;;4865830;29;20045;-96
2023/09/30 08:44:54;;;;;;;926.75;829.75;;;15.30;99.90;;;;;;4867006;29;20059;-88
2023/09/30 08:47:28;;;;;;;918.60;822.78;;;15.40;99.90;;;;;;4849839;29;20129;-92
2023/09/30 08:50:05;;;;;;;884.88;795.42;;;15.50;99.90;;;;;;4871726;29;20033;-95
2023/09/30 08:52:43;;;;;;;834.97;751.90;;;15.60;99.90;;;;;;4853770;29;20045;-96
2023/09/30 08:55:19;;;;;;;841.88;759.72;;;15.70;99.90;;;;;;4876647;23;20053;-93
2023/09/30 08:58:02;;;;;;;838.10;755.90;;;15.40;99.90;;;;;;4855115;29;20053;-93
2023/09/30 09:01:14;;;;;;;833.00;751.85;;;15.80;99.90;;;;;;4836124;29;20061;-93
2023/09/30 09:03:59;;;;;;;827.53;747.08;;;16.00;99.90;;;;;;4843945;29;20045;-96
2023/09/30 09:06:31;;;;;;;810.55;733.97;;;16.10;99.90;;;;;;4871386;29;20053;-94
2023/09/30 09:09:22;;;;;;;733.63;665.70;;;16.20;99.90;;;;;;4869458;29;20293;-96
2023/09/30 09:12:18;;;;;;;764.83;693.08;;;16.20;99.90;;;;;;4849801;29;20084;-94
2023/09/30 09:15:19;;;;;;;745.17;675.83;;;16.30;99.90;;;;;;4862199;29;20089;-93
2023/09/30 09:18:04;;;;;;;698.20;633.03;;;16.50;99.90;;;;;;4836491;29;20056;-93
2023/09/30 09:20:51;;;;;;;765.83;694.03;;;16.40;99.90;;;;;;4848639;29;20064;-94
2023/09/30 09:23:51;;;;;;;718.20;651.38;;;16.50;99.90;;;;;;4832446;29;20053;-93
2023/09/30 09:27:06;;;;;;;712.85;646.85;;;16.80;99.90;;;;;;4845369;29;20060;-93
2023/09/30 09:29:49;;;;;;;721.13;654.70;;;16.80;99.90;;;;;;4846705;29;20060;-96
2023/09/30 09:38:20;;;;;;;659.22;595.75;;;16.90;99.90;;;;;;4911284;28;20625;-88
2023/09/30 09:40:46;;;;;;;702.55;638.83;;;16.90;99.90;;;;;;4910613;29;20079;-88
2023/09/30 09:43:12;;;;;;;719.72;649.00;;;17.00;99.90;;;;;;4892216;29;20044;-88
2023/09/30 09:45:38;;;;;;;809.97;728.88;;;17.00;99.90;;;;;;4890641;29;20048;-88
2023/09/30 09:48:04;;;;;;;695.00;632.50;;;17.00;99.90;;;;;;4897102;29;20509;-88
2023/09/30 09:50:32;;;;;;;685.25;623.40;;;17.10;99.90;;;;;;4901388;29;20115;-89
2023/09/30 09:53:00;;;;;;;815.13;733.65;;;17.10;99.90;;;;;;4896245;29;20434;-90
2023/09/30 09:55:27;;;;;;;792.75;714.38;;;17.20;99.90;;;;;;4905357;29;20052;-87
2023/09/30 09:57:55;;;;;;;709.03;638.65;;;17.30;99.90;;;;;;4901625;29;20466;-87
2023/09/30 10:00:23;;;;;;;725.25;654.03;;;17.30;99.90;;;;;;4905933;29;20047;-89
2023/09/30 10:02:50;;;;;;;762.47;684.92;;;17.40;99.90;;;;;;4899374;29;20052;-86
2023/09/30 10:05:27;;;;;;;737.80;664.33;;;17.40;99.90;;;;;;4916994;29;20058;-92
2023/09/30 10:08:08;;;;;;;813.88;732.53;;;17.50;99.90;;;;;;4912768;29;20254;-89
2023/09/30 10:10:37;;;;;;;779.83;701.42;;;17.60;99.90;;;;;;4900943;29;20043;-88
2023/09/30 10:13:08;;;;;;;805.30;724.30;;;17.60;99.90;;;;;;4902127;29;20036;-92
2023/09/30 10:15:51;;;;;;;803.75;723.30;;;17.60;99.90;;;;;;4901425;29;20062;-90
2023/09/30 10:18:20;;;;;;;771.13;695.60;;;17.80;99.90;;;;;;4879150;29;20127;-88
2023/09/30 10:20:47;;;;;;;723.33;653.92;;;17.90;99.90;;;;;;4895751;29;20158;-92
2023/09/30 10:23:43;;;;;;;812.42;729.08;;;18.00;99.90;;;;;;4890545;29;20563;-90
2023/09/30 10:26:11;;;;;;;728.75;658.78;;;18.00;99.90;;;;;;4896752;29;20067;-90
2023/09/30 10:28:46;;;;;;;663.42;603.13;;;18.10;99.90;;;;;;4901980;29;20058;-88
2023/09/30 10:31:19;;;;;;;758.67;685.25;;;18.00;99.90;;;;;;4899870;29;20167;-90
2023/09/30 10:34:04;;;;;;;763.60;687.10;;;18.10;99.90;;;;;;4898694;29;20143;-94
2023/09/30 10:36:32;;;;;;;763.20;688.85;;;18.20;99.90;;;;;;4900881;29;20093;-93
2023/09/30 10:39:01;;;;;;;756.63;682.75;;;18.40;99.90;;;;;;4892341;29;20102;-92
2023/09/30 11:00:16;;;;;;;681.90;619.28;;;18.20;99.90;;;;;;4766501;30;20620;-96
2023/09/30 11:02:52;;;;;;;645.05;583.65;;;18.30;99.90;;;;;;4813589;29;20202;-91
2023/09/30 11:05:24;;;;;;;676.72;614.17;;;18.20;99.90;;;;;;4899404;29;20040;-94
2023/09/30 11:07:51;;;;;;;590.92;535.60;;;18.30;99.90;;;;;;4911077;29;20055;-91
2023/09/30 11:10:18;;;;;;;625.70;567.63;;;18.50;99.90;;;;;;4894419;29;20127;-93
2023/09/30 11:13:02;;;;;;;703.15;638.63;;;18.60;99.90;;;;;;4888861;29;20107;-96
2023/09/30 11:15:31;;;;;;;646.95;586.63;;;18.80;99.90;;;;;;4903933;29;20050;-95
2023/09/30 11:18:16;;;;;;;538.85;490.52;;;18.90;99.90;;;;;;4901896;29;20059;-94
2023/09/30 11:20:58;;;;;;;;;;;;;;;;;;;;;
2023/09/30 11:26:04;;;;;;;528.08;481.40;;;18.90;99.90;;;;;;4887313;29;20057;-95
2023/09/30 11:28:39;;;;;;;542.83;494.75;;;18.90;99.90;;;;;;4878396;29;20049;-90
2023/09/30 11:31:18;;;;;;;514.15;468.48;;;18.70;99.90;;;;;;4889722;29;20096;-93
2023/09/30 11:33:53;;;;;;;650.00;588.33;;;18.70;99.90;;;;;;4881273;29;20057;-89
2023/09/30 11:36:26;;;;;;;586.50;532.88;;;18.60;99.90;;;;;;4880968;29;20064;-91
2023/09/30 11:39:50;;;;;;;601.72;545.40;;;18.60;99.90;;;;;;4882747;29;20080;-94
2023/09/30 11:45:49;;;;;;;469.83;428.52;;;18.60;99.90;;;;;;4900882;29;20075;-96
2023/09/30 11:48:20;;;;;;;471.40;427.67;;;18.50;99.90;;;;;;4897641;29;20523;-87
2023/09/30 11:51:03;;;;;;;462.42;421.58;;;18.30;99.90;;;;;;4885514;29;20128;-96
2023/09/30 11:54:33;;;;;;;561.35;511.33;;;18.20;99.90;;;;;;4882633;29;20082;-95
2023/09/30 11:57:05;;;;;;;555.28;505.35;;;18.10;99.90;;;;;;4859604;29;20136;-95
2023/09/30 12:03:04;;;;;;;625.90;568.53;;;18.10;99.90;;;;;;4878892;29;20064;-94
2023/09/30 12:05:43;;;;;;;;;;;;;;;;;;;;;
2023/09/30 12:08:55;;;;;;;625.63;568.45;;;17.80;99.90;;;;;;4890344;29;20085;-90
2023/09/30 12:11:24;;;;;;;652.53;591.53;;;17.70;99.90;;;;;;4835429;29;20087;-86
2023/09/30 12:20:15;;;;;;;691.53;626.78;;;17.40;99.90;;;;;;4881937;29;20063;-88
2023/09/30 12:22:43;;;;;;;570.28;518.85;;;17.60;99.90;;;;;;4878345;29;20048;-90
2023/09/30 12:25:19;;;;;;;712.55;646.80;;;17.60;99.90;;;;;;4880634;29;20108;-89
2023/09/30 12:27:48;;;;;;;737.63;670.42;;;17.70;99.90;;;;;;4877862;29;20052;-89
2023/09/30 12:30:30;;;;;;;635.90;577.28;;;17.80;99.90;;;;;;4876782;29;20052;-90
2023/09/30 12:33:08;;;;;;;714.33;648.80;;;17.90;99.90;;;;;;4907206;29;20049;-90
2023/09/30 12:35:45;;;;;;;775.00;703.08;;;18.00;99.90;;;;;;4879462;29;20052;-89
2023/09/30 12:38:11;;;;;;;619.03;561.65;;;18.20;99.90;;;;;;4881046;29;20461;-90
2023/09/30 12:40:37;;;;;;;665.03;603.72;;;18.40;99.90;;;;;;4879023;29;20060;-90
2023/09/30 12:43:06;;;;;;;501.33;455.98;;;18.60;99.90;;;;;;4878629;29;20057;-89
2023/09/30 12:45:47;;;;;;;557.08;505.58;;;18.60;99.90;;;;;;4896036;29;20396;-90
2023/09/30 12:48:59;;;;;;;558.67;507.25;;;18.60;99.90;;;;;;4878690;29;20080;-91
2023/09/30 12:51:41;;;;;;;438.73;399.27;;;18.50;99.90;;;;;;4882347;29;20057;-93
2023/09/30 12:54:13;;;;;;;510.17;463.38;;;18.40;99.90;;;;;;4842918;29;20423;-91
2023/09/30 12:56:54;;;;;;;490.52;446.60;;;18.40;99.90;;;;;;4881982;29;20586;-91
2023/09/30 12:59:25;;;;;;;400.65;366.50;;;18.40;99.90;;;;;;4873488;29;20135;-89
2023/09/30 13:01:51;;;;;;;509.98;463.08;;;18.40;99.90;;;;;;4878815;29;20131;-92
2023/09/30 13:04:22;;;;;;;480.75;436.90;;;18.40;99.90;;;;;;4879632;29;20133;-90
2023/09/30 13:06:50;;;;;;;423.90;386.80;;;18.40;99.90;;;;;;4875874;29;20082;-92
2023/09/30 13:09:16;;;;;;;400.80;366.15;;;18.50;99.90;;;;;;4881634;29;20137;-91
2023/09/30 13:11:42;;;;;;;397.48;363.00;;;18.50;99.90;;;;;;4878591;29;20147;-89
2023/09/30 13:14:07;;;;;;;521.95;472.45;;;18.50;99.90;;;;;;4880215;29;20062;-90
2023/09/30 13:16:33;;;;;;;385.63;354.15;;;18.50;99.90;;;;;;4877773;29;20040;-89
2023/09/30 13:19:04;;;;;;;550.45;501.33;;;18.60;99.90;;;;;;4878677;29;20044;-90
2023/09/30 13:21:30;;;;;;;596.55;542.28;;;18.60;99.90;;;;;;4880333;29;20063;-92
2023/09/30 13:23:56;;;;;;;642.28;576.20;;;18.80;99.90;;;;;;4877092;29;20135;-92
2023/09/30 13:26:31;;;;;;;639.13;574.38;;;18.80;99.90;;;;;;4880253;29;20044;-96
2023/09/30 13:29:01;;;;;;;712.83;641.00;;;18.70;99.90;;;;;;4879856;29;20056;-91
2023/09/30 13:31:26;;;;;;;662.58;593.85;;;18.60;99.90;;;;;;4879382;29;20077;-88
2023/09/30 13:39:00;;;;;;;657.20;596.40;;;18.70;99.90;;;;;;4840793;29;20140;-92
2023/09/30 13:41:19;;;;;;;610.92;556.17;;;18.60;99.90;;;;;;4742883;30;20420;-96
2023/09/30 13:47:37;;;;;;;647.45;585.50;;;18.70;99.90;;;;;;4736283;30;20048;-92